sensor_id;sensor_type;location;lat;lon;timestamp;pressure;altitude;pressure_sealevel;temperature;humidity
29215;BME280;16252;49.816;7.964;2023-01-23T00:02:25;101459.47;;;5.02;67.80
29215;BME280;16252;49.816;7.964;2023-01-23T00:04:50;101438.63;;;4.90;67.72
29215;BME280;16252;49.816;7.964;2023-01-23T00:07:15;101419.53;;;4.78;67.66
29215;BME280;16252;49.816;7.964;2023-01-23T00:09:40;101438.66;;;4.88;67.48
29215;BME280;16252;49.816;7.964;2023-01-23T00:12:06;101446.59;;;4.88;67.43
29215;BME280;16252;49.816;7.964;2023-01-23T00:14:31;101410.13;;;4.67;67.37
29215;BME280;16252;49.816;7.964;2023-01-23T00:16:56;101463.25;;;4.93;67.49
29215;BME280;16252;49.816;7.964;2023-01-23T00:19:21;101471.78;;;5.05;67.53
29215;BME280;16252;49.816;7.964;2023-01-23T00:21:47;101452.63;;;4.95;67.56
29215;BME280;16252;49.816;7.964;2023-01-23T00:24:12;101450.16;;;4.89;67.64
29215;BME280;16252;49.816;7.964;2023-01-23T00:26:38;101488.47;;;5.08;67.44
29215;BME280;16252;49.816;7.964;2023-01-23T00:29:03;101452.84;;;4.87;67.51
29215;BME280;16252;49.816;7.964;2023-01-23T00:31:34;101479.63;;;5.08;67.13
29215;BME280;16252;49.816;7.964;2023-01-23T00:34:05;101485.06;;;5.03;66.94
29215;BME280;16252;49.816;7.964;2023-01-23T00:36:33;101461.84;;;4.82;67.51
29215;BME280;16252;49.816;7.964;2023-01-23T00:39:00;101488.78;;;4.97;67.42
29215;BME280;16252;49.816;7.964;2023-01-23T00:41:25;101493.25;;;4.95;67.63
29215;BME280;16252;49.816;7.964;2023-01-23T00:43:51;101464.59;;;4.78;67.58
29215;BME280;16252;49.816;7.964;2023-01-23T00:46:18;101448.94;;;4.69;67.58
29215;BME280;16252;49.816;7.964;2023-01-23T00:48:43;101407.13;;;4.48;67.48
29215;BME280;16252;49.816;7.964;2023-01-23T00:51:09;101471.66;;;4.78;67.53
29215;BME280;16252;49.816;7.964;2023-01-23T00:53:34;101378.50;;;4.29;67.73
29215;BME280;16252;49.816;7.964;2023-01-23T00:55:59;101456.81;;;4.72;68.06
29215;BME280;16252;49.816;7.964;2023-01-23T00:58:24;101453.38;;;4.69;68.04
29215;BME280;16252;49.816;7.964;2023-01-23T01:00:50;101474.19;;;4.83;67.76
29215;BME280;16252;49.816;7.964;2023-01-23T01:03:15;101442.16;;;4.59;67.57
29215;BME280;16252;49.816;7.964;2023-01-23T01:05:41;101382.81;;;4.33;67.57
29215;BME280;16252;49.816;7.964;2023-01-23T01:08:06;101397.53;;;4.44;67.50
29215;BME280;16252;49.816;7.964;2023-01-23T01:10:31;101482.63;;;4.97;67.98
29215;BME280;16252;49.816;7.964;2023-01-23T01:13:00;101418.31;;;4.59;68.04
29215;BME280;16252;49.816;7.964;2023-01-23T01:15:25;101502.03;;;4.99;67.56
29215;BME280;16252;49.816;7.964;2023-01-23T01:17:51;101461.16;;;4.75;67.45
29215;BME280;16252;49.816;7.964;2023-01-23T01:20:20;101501.13;;;4.98;67.30
29215;BME280;16252;49.816;7.964;2023-01-23T01:22:47;101472.56;;;4.78;67.75
29215;BME280;16252;49.816;7.964;2023-01-23T01:25:13;101483.09;;;4.80;67.44
29215;BME280;16252;49.816;7.964;2023-01-23T01:27:38;101475.16;;;4.80;67.30
29215;BME280;16252;49.816;7.964;2023-01-23T01:30:03;101460.31;;;4.73;67.51
29215;BME280;16252;49.816;7.964;2023-01-23T01:32:29;101396.91;;;4.36;67.40
29215;BME280;16252;49.816;7.964;2023-01-23T01:34:54;101418.88;;;4.39;67.64
29215;BME280;16252;49.816;7.964;2023-01-23T01:37:19;101510.88;;;4.98;67.34
29215;BME280;16252;49.816;7.964;2023-01-23T01:39:47;101500.56;;;4.89;67.19
29215;BME280;16252;49.816;7.964;2023-01-23T01:42:12;101513.63;;;4.95;67.13
29215;BME280;16252;49.816;7.964;2023-01-23T01:44:53;101522.13;;;5.06;67.71
29215;BME280;16252;49.816;7.964;2023-01-23T01:47:19;101508.31;;;4.95;67.62
29215;BME280;16252;49.816;7.964;2023-01-23T01:49:44;101494.44;;;4.85;67.48
29215;BME280;16252;49.816;7.964;2023-01-23T01:52:10;101507.56;;;4.91;67.36
29215;BME280;16252;49.816;7.964;2023-01-23T01:54:45;101349.19;;;4.04;67.39
29215;BME280;16252;49.816;7.964;2023-01-23T01:57:31;101522.31;;;5.00;67.67
29215;BME280;16252;49.816;7.964;2023-01-23T02:00:07;101483.81;;;4.87;67.38
29215;BME280;16252;49.816;7.964;2023-01-23T02:02:36;101509.09;;;4.98;67.22
29215;BME280;16252;49.816;7.964;2023-01-23T02:05:12;101517.84;;;5.02;67.19
29215;BME280;16252;49.816;7.964;2023-01-23T02:07:46;101499.63;;;4.90;67.16
29215;BME280;16252;49.816;7.964;2023-01-23T02:10:13;101517.13;;;4.95;67.07
29215;BME280;16252;49.816;7.964;2023-01-23T02:12:44;101477.25;;;4.69;67.06
29215;BME280;16252;49.816;7.964;2023-01-23T02:15:10;101486.06;;;4.69;67.33
29215;BME280;16252;49.816;7.964;2023-01-23T02:17:35;101486.94;;;4.70;67.07
29215;BME280;16252;49.816;7.964;2023-01-23T02:20:13;101526.03;;;4.94;66.53
29215;BME280;16252;49.816;7.964;2023-01-23T02:23:10;101504.28;;;4.82;66.75
29215;BME280;16252;49.816;7.964;2023-01-23T02:28:06;101506.34;;;4.70;66.90
29215;BME280;16252;49.816;7.964;2023-01-23T02:30:34;101501.97;;;4.69;67.17
29215;BME280;16252;49.816;7.964;2023-01-23T02:33:55;101517.56;;;4.80;67.05
29215;BME280;16252;49.816;7.964;2023-01-23T02:35:55;101520.31;;;4.77;66.80
29215;BME280;16252;49.816;7.964;2023-01-23T02:38:24;101525.38;;;4.86;67.02
29215;BME280;16252;49.816;7.964;2023-01-23T02:40:50;101506.41;;;4.69;66.70
29215;BME280;16252;49.816;7.964;2023-01-23T02:43:21;101534.19;;;4.87;67.15
29215;BME280;16252;49.816;7.964;2023-01-23T02:45:48;101544.41;;;5.00;66.54
29215;BME280;16252;49.816;7.964;2023-01-23T02:48:13;101532.50;;;4.84;66.62
29215;BME280;16252;49.816;7.964;2023-01-23T02:50:39;101527.41;;;4.76;66.80
29215;BME280;16252;49.816;7.964;2023-01-23T02:53:05;101511.72;;;4.69;66.63
29215;BME280;16252;49.816;7.964;2023-01-23T02:55:30;101507.31;;;4.68;66.93
29215;BME280;16252;49.816;7.964;2023-01-23T02:57:57;101527.31;;;4.80;66.93
29215;BME280;16252;49.816;7.964;2023-01-23T03:00:43;101486.41;;;4.57;66.77
29215;BME280;16252;49.816;7.964;2023-01-23T03:03:09;101524.81;;;4.73;67.07
29215;BME280;16252;49.816;7.964;2023-01-23T03:05:34;101540.59;;;4.78;67.26
29215;BME280;16252;49.816;7.964;2023-01-23T03:08:00;101523.94;;;4.74;66.88
29215;BME280;16252;49.816;7.964;2023-01-23T03:10:25;101508.31;;;4.64;66.84
29215;BME280;16252;49.816;7.964;2023-01-23T03:12:50;101519.53;;;4.73;66.77
29215;BME280;16252;49.816;7.964;2023-01-23T03:15:15;101516.13;;;4.68;66.58
29215;BME280;16252;49.816;7.964;2023-01-23T03:17:41;101485.75;;;4.49;66.56
29215;BME280;16252;49.816;7.964;2023-01-23T03:20:07;101539.66;;;4.81;66.85
29215;BME280;16252;49.816;7.964;2023-01-23T03:22:32;101487.47;;;4.50;66.82
29215;BME280;16252;49.816;7.964;2023-01-23T03:24:58;101505.72;;;4.61;66.57
29215;BME280;16252;49.816;7.964;2023-01-23T03:27:23;101541.63;;;4.74;66.82
29215;BME280;16252;49.816;7.964;2023-01-23T03:29:48;101534.63;;;4.71;66.52
29215;BME280;16252;49.816;7.964;2023-01-23T03:32:32;101528.59;;;4.66;66.44
29215;BME280;16252;49.816;7.964;2023-01-23T03:34:57;101506.03;;;4.50;66.35
29215;BME280;16252;49.816;7.964;2023-01-23T03:37:23;101548.66;;;4.75;66.79
29215;BME280;16252;49.816;7.964;2023-01-23T03:39:48;101506.13;;;4.47;66.57
29215;BME280;16252;49.816;7.964;2023-01-23T03:42:33;101525.13;;;4.63;66.42
29215;BME280;16252;49.816;7.964;2023-01-23T03:44:58;101542.59;;;4.70;66.44
29215;BME280;16252;49.816;7.964;2023-01-23T03:47:24;101540.78;;;4.72;66.57
29215;BME280;16252;49.816;7.964;2023-01-23T03:49:50;101519.06;;;4.59;66.46
29215;BME280;16252;49.816;7.964;2023-01-23T03:52:15;101545.22;;;4.71;66.31
29215;BME280;16252;49.816;7.964;2023-01-23T03:54:41;101530.41;;;4.64;66.44
29215;BME280;16252;49.816;7.964;2023-01-23T03:57:06;101530.50;;;4.61;66.20
29215;BME280;16252;49.816;7.964;2023-01-23T03:59:31;101538.25;;;4.67;66.40
29215;BME280;16252;49.816;7.964;2023-01-23T04:01:57;101520.97;;;4.54;66.17
29215;BME280;16252;49.816;7.964;2023-01-23T04:04:24;101549.78;;;4.66;66.19
29215;BME280;16252;49.816;7.964;2023-01-23T04:06:49;101549.78;;;4.66;66.02
29215;BME280;16252;49.816;7.964;2023-01-23T04:09:15;101519.41;;;4.45;65.98
29215;BME280;16252;49.816;7.964;2023-01-23T04:11:40;101549.91;;;4.62;66.04
29215;BME280;16252;49.816;7.964;2023-01-23T04:14:05;101539.44;;;4.55;65.96
29215;BME280;16252;49.816;7.964;2023-01-23T04:16:30;101556.84;;;4.66;65.96
29215;BME280;16252;49.816;7.964;2023-01-23T04:18:56;101553.50;;;4.59;66.21
29215;BME280;16252;49.816;7.964;2023-01-23T04:21:21;101540.41;;;4.53;66.30
29215;BME280;16252;49.816;7.964;2023-01-23T04:23:47;101566.56;;;4.67;66.37
29215;BME280;16252;49.816;7.964;2023-01-23T04:26:12;101542.03;;;4.59;66.19
29215;BME280;16252;49.816;7.964;2023-01-23T04:28:37;101533.34;;;4.53;66.35
29215;BME280;16252;49.816;7.964;2023-01-23T04:31:03;101541.88;;;4.65;66.15
29215;BME280;16252;49.816;7.964;2023-01-23T04:33:29;101538.34;;;4.64;66.13
29215;BME280;16252;49.816;7.964;2023-01-23T04:36:00;101531.22;;;4.66;66.33
29215;BME280;16252;49.816;7.964;2023-01-23T04:38:27;101553.94;;;4.76;66.23
29215;BME280;16252;49.816;7.964;2023-01-23T04:40:53;101536.59;;;4.63;66.66
29215;BME280;16252;49.816;7.964;2023-01-23T04:43:18;101532.50;;;4.51;66.61
29215;BME280;16252;49.816;7.964;2023-01-23T04:45:44;101545.44;;;4.64;66.45
29215;BME280;16252;49.816;7.964;2023-01-23T04:48:11;101552.13;;;4.78;66.11
29215;BME280;16252;49.816;7.964;2023-01-23T04:50:36;101552.13;;;4.78;66.35
29215;BME280;16252;49.816;7.964;2023-01-23T04:53:02;101557.41;;;4.78;66.03
29215;BME280;16252;49.816;7.964;2023-01-23T04:55:28;101550.34;;;4.77;66.22
29215;BME280;16252;49.816;7.964;2023-01-23T04:57:54;101548.69;;;4.73;66.43
29215;BME280;16252;49.816;7.964;2023-01-23T05:00:19;101503.38;;;4.50;66.50
29215;BME280;16252;49.816;7.964;2023-01-23T05:02:46;101532.03;;;4.68;66.22
29215;BME280;16252;49.816;7.964;2023-01-23T05:05:12;101524.22;;;4.64;66.44
29215;BME280;16252;49.816;7.964;2023-01-23T05:07:38;101533.78;;;4.69;66.20
29215;BME280;16252;49.816;7.964;2023-01-23T05:10:04;101538.97;;;4.74;66.27
29215;BME280;16252;49.816;7.964;2023-01-23T05:12:29;101525.94;;;4.66;66.05
29215;BME280;16252;49.816;7.964;2023-01-23T05:14:55;101549.63;;;4.72;66.18
29215;BME280;16252;49.816;7.964;2023-01-23T05:17:20;101545.28;;;4.68;66.08
29215;BME280;16252;49.816;7.964;2023-01-23T05:19:45;101567.09;;;4.80;66.16
29215;BME280;16252;49.816;7.964;2023-01-23T05:22:11;101571.53;;;4.79;65.88
29215;BME280;16252;49.816;7.964;2023-01-23T05:24:36;101535.91;;;4.56;65.87
29215;BME280;16252;49.816;7.964;2023-01-23T05:27:01;101549.94;;;4.60;65.78
29215;BME280;16252;49.816;7.964;2023-01-23T05:29:27;101573.47;;;4.72;65.76
29215;BME280;16252;49.816;7.964;2023-01-23T05:31:52;101573.59;;;4.68;66.22
29215;BME280;16252;49.816;7.964;2023-01-23T05:34:17;101582.41;;;4.68;65.88
29215;BME280;16252;49.816;7.964;2023-01-23T05:36:42;101578.03;;;4.67;65.89
29215;BME280;16252;49.816;7.964;2023-01-23T05:39:08;101551.28;;;4.44;66.02
29215;BME280;16252;49.816;7.964;2023-01-23T05:41:33;101564.97;;;4.60;65.94
29215;BME280;16252;49.816;7.964;2023-01-23T05:43:58;101567.72;;;4.56;65.79
29215;BME280;16252;49.816;7.964;2023-01-23T05:46:23;101594.78;;;4.69;65.83
29215;BME280;16252;49.816;7.964;2023-01-23T05:48:50;101606.97;;;4.76;65.71
29215;BME280;16252;49.816;7.964;2023-01-23T05:51:16;101605.22;;;4.75;65.68
29215;BME280;16252;49.816;7.964;2023-01-23T05:53:42;101598.41;;;4.65;65.58
29215;BME280;16252;49.816;7.964;2023-01-23T05:56:08;101598.31;;;4.68;65.75
29215;BME280;16252;49.816;7.964;2023-01-23T05:58:33;101580.91;;;4.58;65.66
29215;BME280;16252;49.816;7.964;2023-01-23T06:01:01;101593.09;;;4.65;65.61
29215;BME280;16252;49.816;7.964;2023-01-23T06:03:26;101589.78;;;4.59;65.65
29215;BME280;16252;49.816;7.964;2023-01-23T06:05:51;101581.06;;;4.53;65.57
29215;BME280;16252;49.816;7.964;2023-01-23T06:08:17;101593.19;;;4.62;65.65
29215;BME280;16252;49.816;7.964;2023-01-23T06:10:42;101599.34;;;4.64;65.65
29215;BME280;16252;49.816;7.964;2023-01-23T06:13:07;101608.88;;;4.71;65.72
29215;BME280;16252;49.816;7.964;2023-01-23T06:15:32;101608.03;;;4.69;65.63
29215;BME280;16252;49.816;7.964;2023-01-23T06:17:58;101593.19;;;4.62;65.91
29215;BME280;16252;49.816;7.964;2023-01-23T06:20:23;101595.97;;;4.57;66.00
29215;BME280;16252;49.816;7.964;2023-01-23T06:22:48;101599.44;;;4.60;65.70
29215;BME280;16252;49.816;7.964;2023-01-23T06:25:14;101590.72;;;4.56;65.60
29215;BME280;16252;49.816;7.964;2023-01-23T06:27:39;101605.63;;;4.60;65.93
29215;BME280;16252;49.816;7.964;2023-01-23T06:30:05;101610.72;;;4.68;65.64
29215;BME280;16252;49.816;7.964;2023-01-23T06:32:30;101609.81;;;4.69;65.82
29215;BME280;16252;49.816;7.964;2023-01-23T06:34:56;101614.22;;;4.70;65.68
29215;BME280;16252;49.816;7.964;2023-01-23T06:37:21;101616.00;;;4.69;65.92
29215;BME280;16252;49.816;7.964;2023-01-23T06:39:46;101627.25;;;4.77;65.57
29215;BME280;16252;49.816;7.964;2023-01-23T06:42:11;101595.13;;;4.55;65.63
29215;BME280;16252;49.816;7.964;2023-01-23T06:44:37;101592.47;;;4.55;65.32
29215;BME280;16252;49.816;7.964;2023-01-23T06:47:03;101606.38;;;4.65;65.55
29215;BME280;16252;49.816;7.964;2023-01-23T06:49:28;101617.91;;;4.64;65.54
29215;BME280;16252;49.816;7.964;2023-01-23T06:51:53;101621.38;;;4.66;65.48
29215;BME280;16252;49.816;7.964;2023-01-23T06:54:19;101637.97;;;4.73;65.80
29215;BME280;16252;49.816;7.964;2023-01-23T06:56:44;101639.69;;;4.75;65.40
29215;BME280;16252;49.816;7.964;2023-01-23T06:59:09;101616.22;;;4.60;65.58
29215;BME280;16252;49.816;7.964;2023-01-23T07:01:35;101621.59;;;4.59;65.61
29215;BME280;16252;49.816;7.964;2023-01-23T07:04:00;101618.97;;;4.57;65.81
29215;BME280;16252;49.816;7.964;2023-01-23T07:06:25;101604.94;;;4.52;65.59
29215;BME280;16252;49.816;7.964;2023-01-23T07:08:51;101632.94;;;4.64;65.80
29215;BME280;16252;49.816;7.964;2023-01-23T07:11:16;101634.84;;;4.59;65.57
29215;BME280;16252;49.816;7.964;2023-01-23T07:13:41;101649.63;;;4.67;65.84
29215;BME280;16252;49.816;7.964;2023-01-23T07:16:07;101640.25;;;4.54;65.73
29215;BME280;16252;49.816;7.964;2023-01-23T07:18:32;101641.97;;;4.56;65.96
29215;BME280;16252;49.816;7.964;2023-01-23T07:20:58;101637.69;;;4.51;65.96
29215;BME280;16252;49.816;7.964;2023-01-23T07:23:23;101625.44;;;4.45;65.85
29215;BME280;16252;49.816;7.964;2023-01-23T07:25:48;101639.31;;;4.56;66.00
29215;BME280;16252;49.816;7.964;2023-01-23T07:28:14;101637.50;;;4.57;65.94
29215;BME280;16252;49.816;7.964;2023-01-23T07:30:39;101641.97;;;4.56;65.98
29215;BME280;16252;49.816;7.964;2023-01-23T07:33:05;101653.03;;;4.72;66.20
29215;BME280;16252;49.816;7.964;2023-01-23T07:35:31;101662.59;;;4.78;66.26
29215;BME280;16252;49.816;7.964;2023-01-23T07:37:56;101661.91;;;4.71;66.34
29215;BME280;16252;49.816;7.964;2023-01-23T07:40:22;101663.53;;;4.77;66.05
29215;BME280;16252;49.816;7.964;2023-01-23T07:42:47;101675.94;;;4.75;66.02
29215;BME280;16252;49.816;7.964;2023-01-23T07:45:13;101679.41;;;4.78;66.13
29215;BME280;16252;49.816;7.964;2023-01-23T07:47:39;101662.13;;;4.62;65.98
29215;BME280;16252;49.816;7.964;2023-01-23T07:50:24;101682.06;;;4.78;65.59
29215;BME280;16252;49.816;7.964;2023-01-23T07:52:50;101680.47;;;4.71;65.96
29215;BME280;16252;49.816;7.964;2023-01-23T07:55:15;101711.03;;;4.86;65.82
29215;BME280;16252;49.816;7.964;2023-01-23T07:57:40;101684.84;;;4.72;65.99
29215;BME280;16252;49.816;7.964;2023-01-23T08:00:07;101673.78;;;4.55;66.01
29215;BME280;16252;49.816;7.964;2023-01-23T08:02:35;101698.09;;;4.74;66.11
29215;BME280;16252;49.816;7.964;2023-01-23T08:05:02;101693.78;;;4.68;66.00
29215;BME280;16252;49.816;7.964;2023-01-23T08:07:27;101670.94;;;4.64;65.86
29215;BME280;16252;49.816;7.964;2023-01-23T08:09:52;101709.41;;;4.81;66.11
29215;BME280;16252;49.816;7.964;2023-01-23T08:12:17;101712.03;;;4.82;65.97
29215;BME280;16252;49.816;7.964;2023-01-23T08:14:43;101719.91;;;4.85;66.07
29215;BME280;16252;49.816;7.964;2023-01-23T08:17:08;101698.03;;;4.75;66.08
29215;BME280;16252;49.816;7.964;2023-01-23T08:19:33;101706.75;;;4.81;66.07
29215;BME280;16252;49.816;7.964;2023-01-23T08:21:58;101722.31;;;4.94;66.06
29215;BME280;16252;49.816;7.964;2023-01-23T08:24:24;101710.22;;;4.84;66.16
29215;BME280;16252;49.816;7.964;2023-01-23T08:26:49;101647.38;;;4.52;66.14
29215;BME280;16252;49.816;7.964;2023-01-23T08:29:14;101730.13;;;5.00;65.94
29215;BME280;16252;49.816;7.964;2023-01-23T08:31:40;101687.41;;;4.75;65.96
29215;BME280;16252;49.816;7.964;2023-01-23T08:34:05;101703.13;;;4.85;66.04
29215;BME280;16252;49.816;7.964;2023-01-23T08:36:30;101733.59;;;5.04;65.87
29215;BME280;16252;49.816;7.964;2023-01-23T08:38:56;101714.44;;;4.91;65.89
29215;BME280;16252;49.816;7.964;2023-01-23T08:41:21;101691.09;;;4.71;65.85
29215;BME280;16252;49.816;7.964;2023-01-23T08:43:48;101732.66;;;5.05;65.70
29215;BME280;16252;49.816;7.964;2023-01-23T08:46:13;101733.63;;;5.01;65.96
29215;BME280;16252;49.816;7.964;2023-01-23T08:48:39;101737.03;;;5.06;65.96
29215;BME280;16252;49.816;7.964;2023-01-23T08:51:07;101670.94;;;4.64;66.05
29215;BME280;16252;49.816;7.964;2023-01-23T08:53:33;101741.41;;;5.09;65.83
29215;BME280;16252;49.816;7.964;2023-01-23T08:56:03;101740.38;;;5.14;65.83
29215;BME280;16252;49.816;7.964;2023-01-23T08:58:29;101698.44;;;4.94;65.93
29215;BME280;16252;49.816;7.964;2023-01-23T09:00:55;101701.97;;;4.95;65.95
29215;BME280;16252;49.816;7.964;2023-01-23T09:03:20;101708.06;;;4.98;65.82
29215;BME280;16252;49.816;7.964;2023-01-23T09:05:46;101676.38;;;4.92;65.99
29215;BME280;16252;49.816;7.964;2023-01-23T09:08:11;101682.66;;;4.90;65.84
29215;BME280;16252;49.816;7.964;2023-01-23T09:10:36;101648.66;;;4.71;65.73
29215;BME280;16252;49.816;7.964;2023-01-23T09:13:02;101735.75;;;5.22;65.89
29215;BME280;16252;49.816;7.964;2023-01-23T09:15:27;101672.03;;;4.90;65.74
29215;BME280;16252;49.816;7.964;2023-01-23T09:17:52;101696.38;;;5.06;65.82
29215;BME280;16252;49.816;7.964;2023-01-23T09:20:18;101704.13;;;5.13;65.88
29215;BME280;16252;49.816;7.964;2023-01-23T09:22:43;101701.47;;;5.13;65.64
29215;BME280;16252;49.816;7.964;2023-01-23T09:25:09;101685.84;;;5.03;65.74
29215;BME280;16252;49.816;7.964;2023-01-23T09:27:34;101705.81;;;5.17;65.74
29215;BME280;16252;49.816;7.964;2023-01-23T09:29:59;101737.16;;;5.36;65.48
29215;BME280;16252;49.816;7.964;2023-01-23T09:32:25;101719.06;;;5.17;65.65
29215;BME280;16252;49.816;7.964;2023-01-23T09:34:50;101722.50;;;5.21;65.47
29215;BME280;16252;49.816;7.964;2023-01-23T09:37:16;101753.13;;;5.34;65.32
29215;BME280;16252;49.816;7.964;2023-01-23T09:39:42;101692.94;;;5.02;65.34
29215;BME280;16252;49.816;7.964;2023-01-23T09:42:16;101744.22;;;5.37;65.18
29215;BME280;16252;49.816;7.964;2023-01-23T09:45:02;101746.81;;;5.38;65.20
29215;BME280;16252;49.816;7.964;2023-01-23T09:47:39;101741.50;;;5.38;65.46
29215;BME280;16252;49.816;7.964;2023-01-23T09:50:17;101667.41;;;4.98;65.35
29215;BME280;16252;49.816;7.964;2023-01-23T09:52:48;101733.50;;;5.40;65.32
29215;BME280;16252;49.816;7.964;2023-01-23T09:55:31;101748.19;;;5.53;65.30
29215;BME280;16252;49.816;7.964;2023-01-23T09:57:59;101763.03;;;5.60;65.48
29215;BME280;16252;49.816;7.964;2023-01-23T10:00:31;101756.78;;;5.63;65.75
29215;BME280;16252;49.816;7.964;2023-01-23T10:02:59;101761.00;;;5.70;65.47
29215;BME280;16252;49.816;7.964;2023-01-23T10:05:40;101740.88;;;5.61;65.20
29215;BME280;16252;49.816;7.964;2023-01-23T10:08:44;101754.47;;;5.82;64.93
29215;BME280;16252;49.816;7.964;2023-01-23T10:11:22;101732.78;;;5.66;64.76
29215;BME280;16252;49.816;7.964;2023-01-23T10:22:40;101759.34;;;5.97;64.59
29215;BME280;16252;49.816;7.964;2023-01-23T10:25:13;101733.28;;;5.79;64.68
29215;BME280;16252;49.816;7.964;2023-01-23T10:27:44;101762.09;;;5.96;64.61
29215;BME280;16252;49.816;7.964;2023-01-23T10:30:25;101747.16;;;5.90;64.33
29215;BME280;16252;49.816;7.964;2023-01-23T10:33:00;101761.03;;;6.01;64.12
29215;BME280;16252;49.816;7.964;2023-01-23T10:35:38;101760.09;;;6.02;64.37
29215;BME280;16252;49.816;7.964;2023-01-23T10:40:51;101756.75;;;5.96;64.43
29215;BME280;16252;49.816;7.964;2023-01-23T10:43:35;101736.59;;;5.87;64.32
29215;BME280;16252;49.816;7.964;2023-01-23T10:46:01;101721.03;;;5.75;64.26
29215;BME280;16252;49.816;7.964;2023-01-23T10:48:40;101764.53;;;6.02;64.09
29215;BME280;16252;49.816;7.964;2023-01-23T10:51:46;101766.16;;;6.07;62.82
29215;BME280;16252;49.816;7.964;2023-01-23T10:56:47;101749.41;;;6.05;64.06
29215;BME280;16252;49.816;7.964;2023-01-23T10:59:19;101736.41;;;5.95;64.08
29215;BME280;16252;49.816;7.964;2023-01-23T11:01:54;101727.56;;;5.94;63.48
29215;BME280;16252;49.816;7.964;2023-01-23T11:04:24;101756.25;;;6.13;63.73
29215;BME280;16252;49.816;7.964;2023-01-23T11:09:26;101713.50;;;5.89;63.28
29215;BME280;16252;49.816;7.964;2023-01-23T11:12:28;101714.97;;;6.01;62.92
29215;BME280;16252;49.816;7.964;2023-01-23T11:15:32;101743.66;;;6.19;62.71
29215;BME280;16252;49.816;7.964;2023-01-23T11:17:59;101728.41;;;5.96;63.33
29215;BME280;16252;49.816;7.964;2023-01-23T11:20:39;101738.78;;;6.05;62.70
29215;BME280;16252;49.816;7.964;2023-01-23T11:25:36;101745.69;;;6.11;62.70
29215;BME280;16252;49.816;7.964;2023-01-23T11:28:17;101747.31;;;6.15;62.69
29215;BME280;16252;49.816;7.964;2023-01-23T11:31:01;101748.25;;;6.14;62.76
29215;BME280;16252;49.816;7.964;2023-01-23T11:33:36;101726.34;;;6.06;62.52
29215;BME280;16252;49.816;7.964;2023-01-23T11:38:46;101735.91;;;6.12;62.75
29215;BME280;16252;49.816;7.964;2023-01-23T11:41:14;101731.56;;;6.09;63.37
29215;BME280;16252;49.816;7.964;2023-01-23T11:43:40;101709.84;;;5.95;63.60
29215;BME280;16252;49.816;7.964;2023-01-23T11:46:28;101681.84;;;5.83;62.90
29215;BME280;16252;49.816;7.964;2023-01-23T11:49:56;101722.50;;;6.16;63.01
29215;BME280;16252;49.816;7.964;2023-01-23T11:52:03;101666.75;;;5.83;63.02
29215;BME280;16252;49.816;7.964;2023-01-23T11:57:28;101698.94;;;6.04;62.80
29215;BME280;16252;49.816;7.964;2023-01-23T12:00:23;101679.66;;;5.97;62.40
29215;BME280;16252;49.816;7.964;2023-01-23T12:03:06;101723.25;;;6.20;62.81
29215;BME280;16252;49.816;7.964;2023-01-23T12:05:48;101740.72;;;6.28;62.90
29215;BME280;16252;49.816;7.964;2023-01-23T12:13:33;101672.50;;;5.99;62.33
29215;BME280;16252;49.816;7.964;2023-01-23T12:16:26;101719.50;;;6.27;62.24
29215;BME280;16252;49.816;7.964;2023-01-23T12:24:13;101719.34;;;6.32;62.76
29215;BME280;16252;49.816;7.964;2023-01-23T12:27:05;101703.50;;;6.28;62.29
29215;BME280;16252;49.816;7.964;2023-01-23T12:30:00;101714.63;;;6.41;62.17
29215;BME280;16252;49.816;7.964;2023-01-23T12:38:29;101683.94;;;6.31;62.06
29215;BME280;16252;49.816;7.964;2023-01-23T12:41:05;101703.69;;;6.50;61.74
29215;BME280;16252;49.816;7.964;2023-01-23T12:43:37;101694.44;;;6.36;62.27
29215;BME280;16252;49.816;7.964;2023-01-23T12:46:16;101653.63;;;6.08;62.19
29215;BME280;16252;49.816;7.964;2023-01-23T12:51:35;101680.44;;;6.29;62.21
29215;BME280;16252;49.816;7.964;2023-01-23T12:54:05;101682.97;;;6.34;62.23
29215;BME280;16252;49.816;7.964;2023-01-23T12:56:38;101679.38;;;6.35;62.16
29215;BME280;16252;49.816;7.964;2023-01-23T12:59:09;101687.22;;;6.39;62.36
29215;BME280;16252;49.816;7.964;2023-01-23T13:04:26;101682.56;;;6.46;62.21
29215;BME280;16252;49.816;7.964;2023-01-23T13:07:07;101697.63;;;6.45;62.43
29215;BME280;16252;49.816;7.964;2023-01-23T13:09:53;101692.19;;;6.50;61.96
29215;BME280;16252;49.816;7.964;2023-01-23T13:12:26;101685.25;;;6.46;62.79
29215;BME280;16252;49.816;7.964;2023-01-23T13:20:22;101650.09;;;6.36;62.17
29215;BME280;16252;49.816;7.964;2023-01-23T13:23:26;101675.09;;;6.57;62.25
29215;BME280;16252;49.816;7.964;2023-01-23T13:28:43;101662.78;;;6.55;62.25
29215;BME280;16252;49.816;7.964;2023-01-23T13:31:35;101655.47;;;6.61;61.70
29215;BME280;16252;49.816;7.964;2023-01-23T13:34:04;101660.94;;;6.57;62.47
29215;BME280;16252;49.816;7.964;2023-01-23T13:36:48;101663.53;;;6.58;62.77
29215;BME280;16252;49.816;7.964;2023-01-23T13:41:47;101666.16;;;6.60;62.67
29215;BME280;16252;49.816;7.964;2023-01-23T13:44:21;101658.03;;;6.64;61.80
29215;BME280;16252;49.816;7.964;2023-01-23T13:50:10;101634.50;;;6.52;62.28
29215;BME280;16252;49.816;7.964;2023-01-23T13:52:42;101659.75;;;6.65;62.41
29215;BME280;16252;49.816;7.964;2023-01-23T13:55:33;101633.94;;;6.42;62.31
29215;BME280;16252;49.816;7.964;2023-01-23T13:58:24;101660.94;;;6.57;62.07
29215;BME280;16252;49.816;7.964;2023-01-23T14:01:00;101659.91;;;6.61;61.97
29215;BME280;16252;49.816;7.964;2023-01-23T14:04:04;101651.19;;;6.56;62.13
29215;BME280;16252;49.816;7.964;2023-01-23T14:06:48;101656.53;;;6.56;62.15
29215;BME280;16252;49.816;7.964;2023-01-23T14:09:28;101678.28;;;6.68;62.05
29215;BME280;16252;49.816;7.964;2023-01-23T14:11:58;101662.56;;;6.61;62.04
29215;BME280;16252;49.816;7.964;2023-01-23T14:14:23;101638.34;;;6.43;62.60
29215;BME280;16252;49.816;7.964;2023-01-23T14:17:08;101674.75;;;6.68;62.36